Appleton, Maine
Current Conditions -  °F | °C
As of 4:55 AM on Saturday 25 Oct 2014 (Local Time) from KRKD Reporting Station
Few Clouds Few Clouds  
Wind Chill: 42°   Ceiling: Unl
Heat Index: 45°   Visibility: 10mi
Dew Point: 41°   Wind: 5mph
Humidity: 87%   Direction: 290°WNW
Pressure: 29.65"   Gusts: NA
Location:  44.2596°N, 69.2573°W
Report Text: KRKD 250855Z AUTO 29004KT 10SM FEW037 FEW120 07/05 A2965 RMK AO1 54000
Loading
Personal Weather Stations






























Interactive Weather Map
Tropical Storm Tracking
New forecast layout! Learn more

10-Day Weather Forecast

Advertisements
Track Severe Weather on mobile